sensor_id;sensor_type;location;lat;lon;timestamp;temperature;humidity
12268;DHT22;6196;48.398;11.736;2023-04-03T00:01:21;4.10;99.90
12268;DHT22;6196;48.398;11.736;2023-04-03T00:03:48;4.00;99.90
12268;DHT22;6196;48.398;11.736;2023-04-03T00:06:14;4.00;99.90
12268;DHT22;6196;48.398;11.736;2023-04-03T00:08:41;4.10;99.90
12268;DHT22;6196;48.398;11.736;2023-04-03T00:11:09;3.90;99.90
12268;DHT22;6196;48.398;11.736;2023-04-03T00:13:37;3.90;99.90
12268;DHT22;6196;48.398;11.736;2023-04-03T00:16:04;3.90;99.90
12268;DHT22;6196;48.398;11.736;2023-04-03T00:18:32;4.00;99.90
12268;DHT22;6196;48.398;11.736;2023-04-03T00:20:59;3.90;99.90
12268;DHT22;6196;48.398;11.736;2023-04-03T00:23:26;3.90;99.90
12268;DHT22;6196;48.398;11.736;2023-04-03T00:25:53;3.90;99.90
12268;DHT22;6196;48.398;11.736;2023-04-03T00:28:20;3.80;99.90
12268;DHT22;6196;48.398;11.736;2023-04-03T00:30:51;3.80;99.90
12268;DHT22;6196;48.398;11.736;2023-04-03T00:33:19;3.90;99.90
12268;DHT22;6196;48.398;11.736;2023-04-03T00:35:50;3.90;99.90
12268;DHT22;6196;48.398;11.736;2023-04-03T00:38:18;3.80;99.90
12268;DHT22;6196;48.398;11.736;2023-04-03T00:40:46;3.70;99.90
12268;DHT22;6196;48.398;11.736;2023-04-03T00:43:20;3.60;99.90
12268;DHT22;6196;48.398;11.736;2023-04-03T00:45:51;3.60;99.90
12268;DHT22;6196;48.398;11.736;2023-04-03T00:48:29;3.60;99.90
12268;DHT22;6196;48.398;11.736;2023-04-03T00:50:59;3.60;99.90
12268;DHT22;6196;48.398;11.736;2023-04-03T00:53:31;3.60;99.90
12268;DHT22;6196;48.398;11.736;2023-04-03T00:56:21;3.70;99.90
12268;DHT22;6196;48.398;11.736;2023-04-03T00:59:14;3.70;99.90
12268;DHT22;6196;48.398;11.736;2023-04-03T01:01:43;3.80;99.90
12268;DHT22;6196;48.398;11.736;2023-04-03T01:04:32;3.90;99.90
12268;DHT22;6196;48.398;11.736;2023-04-03T01:07:13;3.80;99.90
12268;DHT22;6196;48.398;11.736;2023-04-03T01:09:42;3.80;99.90
12268;DHT22;6196;48.398;11.736;2023-04-03T01:14:45;3.80;99.90
12268;DHT22;6196;48.398;11.736;2023-04-03T01:17:35;3.70;99.90
12268;DHT22;6196;48.398;11.736;2023-04-03T01:25:42;3.70;99.90
12268;DHT22;6196;48.398;11.736;2023-04-03T01:28:16;3.80;99.90
12268;DHT22;6196;48.398;11.736;2023-04-03T01:31:25;3.80;99.90
12268;DHT22;6196;48.398;11.736;2023-04-03T01:33:54;3.90;99.90
12268;DHT22;6196;48.398;11.736;2023-04-03T01:36:25;3.90;99.90
12268;DHT22;6196;48.398;11.736;2023-04-03T01:38:58;3.70;99.90
12268;DHT22;6196;48.398;11.736;2023-04-03T01:41:26;3.70;99.90
12268;DHT22;6196;48.398;11.736;2023-04-03T01:43:53;3.70;99.90
12268;DHT22;6196;48.398;11.736;2023-04-03T01:46:20;3.70;99.90
12268;DHT22;6196;48.398;11.736;2023-04-03T01:48:49;3.70;99.90
12268;DHT22;6196;48.398;11.736;2023-04-03T01:51:16;3.60;99.90
12268;DHT22;6196;48.398;11.736;2023-04-03T01:53:43;3.60;99.90
12268;DHT22;6196;48.398;11.736;2023-04-03T01:56:10;3.60;99.90
12268;DHT22;6196;48.398;11.736;2023-04-03T01:58:37;3.60;99.90
12268;DHT22;6196;48.398;11.736;2023-04-03T02:01:04;3.70;99.90
12268;DHT22;6196;48.398;11.736;2023-04-03T02:03:32;3.60;99.90
12268;DHT22;6196;48.398;11.736;2023-04-03T02:05:59;3.70;99.90
12268;DHT22;6196;48.398;11.736;2023-04-03T02:08:26;3.70;99.90
12268;DHT22;6196;48.398;11.736;2023-04-03T02:10:53;3.70;99.90
12268;DHT22;6196;48.398;11.736;2023-04-03T02:13:20;3.70;99.90
12268;DHT22;6196;48.398;11.736;2023-04-03T02:15:47;3.80;99.90
12268;DHT22;6196;48.398;11.736;2023-04-03T02:18:14;3.90;99.90
12268;DHT22;6196;48.398;11.736;2023-04-03T02:20:41;3.90;99.90
12268;DHT22;6196;48.398;11.736;2023-04-03T02:23:08;3.80;99.90
12268;DHT22;6196;48.398;11.736;2023-04-03T02:25:36;3.80;99.90
12268;DHT22;6196;48.398;11.736;2023-04-03T02:28:04;3.80;99.90
12268;DHT22;6196;48.398;11.736;2023-04-03T02:30:32;3.70;99.90
12268;DHT22;6196;48.398;11.736;2023-04-03T02:32:59;3.60;99.90
12268;DHT22;6196;48.398;11.736;2023-04-03T02:35:26;3.50;99.90
12268;DHT22;6196;48.398;11.736;2023-04-03T02:37:53;3.40;99.90
12268;DHT22;6196;48.398;11.736;2023-04-03T02:40:20;3.40;99.90
12268;DHT22;6196;48.398;11.736;2023-04-03T02:42:47;3.40;99.90
12268;DHT22;6196;48.398;11.736;2023-04-03T02:45:13;3.50;99.90
12268;DHT22;6196;48.398;11.736;2023-04-03T02:47:40;3.50;99.90
12268;DHT22;6196;48.398;11.736;2023-04-03T02:50:08;3.50;99.90
12268;DHT22;6196;48.398;11.736;2023-04-03T02:52:35;3.60;99.90
12268;DHT22;6196;48.398;11.736;2023-04-03T02:55:01;3.60;99.90
12268;DHT22;6196;48.398;11.736;2023-04-03T02:57:29;3.60;99.90
12268;DHT22;6196;48.398;11.736;2023-04-03T02:59:56;3.70;99.90
12268;DHT22;6196;48.398;11.736;2023-04-03T03:02:23;3.80;99.90
12268;DHT22;6196;48.398;11.736;2023-04-03T03:04:50;3.80;99.90
12268;DHT22;6196;48.398;11.736;2023-04-03T03:07:17;3.80;99.90
12268;DHT22;6196;48.398;11.736;2023-04-03T03:09:44;3.70;99.90
12268;DHT22;6196;48.398;11.736;2023-04-03T03:12:10;3.70;99.90
12268;DHT22;6196;48.398;11.736;2023-04-03T03:14:37;3.80;99.90
12268;DHT22;6196;48.398;11.736;2023-04-03T03:17:04;3.70;99.90
12268;DHT22;6196;48.398;11.736;2023-04-03T03:19:31;3.70;99.90
12268;DHT22;6196;48.398;11.736;2023-04-03T03:21:58;3.60;99.90
12268;DHT22;6196;48.398;11.736;2023-04-03T03:24:25;3.50;99.90
12268;DHT22;6196;48.398;11.736;2023-04-03T03:26:52;3.50;99.90
12268;DHT22;6196;48.398;11.736;2023-04-03T03:29:19;3.40;99.90
12268;DHT22;6196;48.398;11.736;2023-04-03T03:31:46;3.30;99.90
12268;DHT22;6196;48.398;11.736;2023-04-03T03:34:12;3.20;99.90
12268;DHT22;6196;48.398;11.736;2023-04-03T03:36:39;3.30;99.90
12268;DHT22;6196;48.398;11.736;2023-04-03T03:39:07;3.30;99.90
12268;DHT22;6196;48.398;11.736;2023-04-03T03:41:34;3.30;99.90
12268;DHT22;6196;48.398;11.736;2023-04-03T03:44:01;3.30;99.90
12268;DHT22;6196;48.398;11.736;2023-04-03T03:46:27;3.40;99.90
12268;DHT22;6196;48.398;11.736;2023-04-03T03:48:54;3.40;99.90
12268;DHT22;6196;48.398;11.736;2023-04-03T03:51:21;3.40;99.90
12268;DHT22;6196;48.398;11.736;2023-04-03T03:53:48;3.40;99.90
12268;DHT22;6196;48.398;11.736;2023-04-03T03:56:15;3.40;99.90
12268;DHT22;6196;48.398;11.736;2023-04-03T03:58:42;3.40;99.90
12268;DHT22;6196;48.398;11.736;2023-04-03T04:01:09;3.50;99.90
12268;DHT22;6196;48.398;11.736;2023-04-03T04:03:35;3.50;99.90
12268;DHT22;6196;48.398;11.736;2023-04-03T04:06:03;3.50;99.90
12268;DHT22;6196;48.398;11.736;2023-04-03T04:08:30;3.50;99.90
12268;DHT22;6196;48.398;11.736;2023-04-03T04:10:57;3.50;99.90
12268;DHT22;6196;48.398;11.736;2023-04-03T04:13:24;3.50;99.90
12268;DHT22;6196;48.398;11.736;2023-04-03T04:15:51;3.40;99.90
12268;DHT22;6196;48.398;11.736;2023-04-03T04:18:18;3.40;99.90
12268;DHT22;6196;48.398;11.736;2023-04-03T04:20:46;3.40;99.90
12268;DHT22;6196;48.398;11.736;2023-04-03T04:23:13;3.40;99.90
12268;DHT22;6196;48.398;11.736;2023-04-03T04:25:40;3.40;99.90
12268;DHT22;6196;48.398;11.736;2023-04-03T04:28:07;3.40;99.90
12268;DHT22;6196;48.398;11.736;2023-04-03T04:30:34;3.50;99.90
12268;DHT22;6196;48.398;11.736;2023-04-03T04:33:01;3.40;99.90
12268;DHT22;6196;48.398;11.736;2023-04-03T04:35:28;3.40;99.90
12268;DHT22;6196;48.398;11.736;2023-04-03T04:37:55;3.40;99.90
12268;DHT22;6196;48.398;11.736;2023-04-03T04:40:22;3.50;99.90
12268;DHT22;6196;48.398;11.736;2023-04-03T04:42:49;3.50;99.90
12268;DHT22;6196;48.398;11.736;2023-04-03T04:45:16;3.50;99.90
12268;DHT22;6196;48.398;11.736;2023-04-03T04:47:43;3.50;99.90
12268;DHT22;6196;48.398;11.736;2023-04-03T04:50:11;3.50;99.90
12268;DHT22;6196;48.398;11.736;2023-04-03T04:52:38;3.50;99.90
12268;DHT22;6196;48.398;11.736;2023-04-03T04:55:05;3.60;99.90
12268;DHT22;6196;48.398;11.736;2023-04-03T04:57:33;3.50;99.90
12268;DHT22;6196;48.398;11.736;2023-04-03T05:00:01;3.50;99.90
12268;DHT22;6196;48.398;11.736;2023-04-03T05:02:28;3.50;99.90
12268;DHT22;6196;48.398;11.736;2023-04-03T05:04:55;3.60;99.90
12268;DHT22;6196;48.398;11.736;2023-04-03T05:07:22;3.60;99.90
12268;DHT22;6196;48.398;11.736;2023-04-03T05:09:49;3.60;99.90
12268;DHT22;6196;48.398;11.736;2023-04-03T05:12:16;3.60;99.90
12268;DHT22;6196;48.398;11.736;2023-04-03T05:14:43;3.60;99.90
12268;DHT22;6196;48.398;11.736;2023-04-03T05:17:10;3.60;99.90
12268;DHT22;6196;48.398;11.736;2023-04-03T05:19:37;3.60;99.90
12268;DHT22;6196;48.398;11.736;2023-04-03T05:22:04;3.50;99.90
12268;DHT22;6196;48.398;11.736;2023-04-03T05:24:31;3.40;99.90
12268;DHT22;6196;48.398;11.736;2023-04-03T05:26:58;3.40;99.90
12268;DHT22;6196;48.398;11.736;2023-04-03T05:29:25;3.40;99.90
12268;DHT22;6196;48.398;11.736;2023-04-03T05:31:52;3.50;99.90
12268;DHT22;6196;48.398;11.736;2023-04-03T05:34:19;3.60;99.90
12268;DHT22;6196;48.398;11.736;2023-04-03T05:36:46;3.70;99.90
12268;DHT22;6196;48.398;11.736;2023-04-03T05:39:13;3.70;99.90
12268;DHT22;6196;48.398;11.736;2023-04-03T05:41:40;3.80;99.90
12268;DHT22;6196;48.398;11.736;2023-04-03T05:44:07;3.70;99.90
12268;DHT22;6196;48.398;11.736;2023-04-03T05:46:33;3.80;99.90
12268;DHT22;6196;48.398;11.736;2023-04-03T05:49:00;3.90;99.90
12268;DHT22;6196;48.398;11.736;2023-04-03T05:51:34;3.90;99.90
12268;DHT22;6196;48.398;11.736;2023-04-03T05:54:26;4.00;99.90
12268;DHT22;6196;48.398;11.736;2023-04-03T05:56:54;3.90;99.90
12268;DHT22;6196;48.398;11.736;2023-04-03T05:59:22;4.00;99.90
12268;DHT22;6196;48.398;11.736;2023-04-03T06:01:48;4.10;99.90
12268;DHT22;6196;48.398;11.736;2023-04-03T06:04:15;4.10;99.90
12268;DHT22;6196;48.398;11.736;2023-04-03T06:06:54;4.00;99.90
12268;DHT22;6196;48.398;11.736;2023-04-03T06:09:25;4.10;99.90
12268;DHT22;6196;48.398;11.736;2023-04-03T06:11:55;4.20;99.90
12268;DHT22;6196;48.398;11.736;2023-04-03T06:14:25;4.10;99.90
12268;DHT22;6196;48.398;11.736;2023-04-03T06:16:53;4.10;99.90
12268;DHT22;6196;48.398;11.736;2023-04-03T06:19:20;4.20;99.90
12268;DHT22;6196;48.398;11.736;2023-04-03T06:21:47;4.20;99.90
12268;DHT22;6196;48.398;11.736;2023-04-03T06:24:16;4.40;99.90
12268;DHT22;6196;48.398;11.736;2023-04-03T06:26:43;4.30;99.90
12268;DHT22;6196;48.398;11.736;2023-04-03T06:29:10;4.50;99.90
12268;DHT22;6196;48.398;11.736;2023-04-03T06:31:37;4.50;99.90
12268;DHT22;6196;48.398;11.736;2023-04-03T06:34:04;4.60;99.90
12268;DHT22;6196;48.398;11.736;2023-04-03T06:36:35;4.70;99.90
12268;DHT22;6196;48.398;11.736;2023-04-03T06:39:02;4.80;99.90
12268;DHT22;6196;48.398;11.736;2023-04-03T06:41:29;4.80;99.90
12268;DHT22;6196;48.398;11.736;2023-04-03T06:43:57;4.90;99.90
12268;DHT22;6196;48.398;11.736;2023-04-03T06:46:26;4.90;99.90
12268;DHT22;6196;48.398;11.736;2023-04-03T06:48:53;4.90;99.90
12268;DHT22;6196;48.398;11.736;2023-04-03T06:53:50;5.20;99.90
12268;DHT22;6196;48.398;11.736;2023-04-03T06:56:18;5.20;99.90
12268;DHT22;6196;48.398;11.736;2023-04-03T06:58:45;5.30;99.90
12268;DHT22;6196;48.398;11.736;2023-04-03T07:01:14;5.40;99.90
12268;DHT22;6196;48.398;11.736;2023-04-03T07:03:42;5.50;99.90
12268;DHT22;6196;48.398;11.736;2023-04-03T07:06:13;5.40;99.90
12268;DHT22;6196;48.398;11.736;2023-04-03T07:08:41;5.40;99.90
12268;DHT22;6196;48.398;11.736;2023-04-03T07:11:09;5.60;99.90
12268;DHT22;6196;48.398;11.736;2023-04-03T07:13:37;5.70;99.90
12268;DHT22;6196;48.398;11.736;2023-04-03T07:16:05;5.70;99.90
12268;DHT22;6196;48.398;11.736;2023-04-03T07:18:33;5.70;99.90
12268;DHT22;6196;48.398;11.736;2023-04-03T07:21:00;5.80;99.90
12268;DHT22;6196;48.398;11.736;2023-04-03T07:23:27;5.70;99.90
12268;DHT22;6196;48.398;11.736;2023-04-03T07:25:54;5.70;99.90
12268;DHT22;6196;48.398;11.736;2023-04-03T07:28:22;5.80;99.90
12268;DHT22;6196;48.398;11.736;2023-04-03T07:30:51;5.90;99.90
12268;DHT22;6196;48.398;11.736;2023-04-03T07:33:30;6.00;99.90
12268;DHT22;6196;48.398;11.736;2023-04-03T07:35:57;5.70;99.90
12268;DHT22;6196;48.398;11.736;2023-04-03T07:38:24;5.80;99.90
12268;DHT22;6196;48.398;11.736;2023-04-03T07:40:52;5.60;99.90
12268;DHT22;6196;48.398;11.736;2023-04-03T07:43:20;5.70;99.90
12268;DHT22;6196;48.398;11.736;2023-04-03T07:45:49;5.70;99.90
12268;DHT22;6196;48.398;11.736;2023-04-03T07:48:22;5.70;99.90
12268;DHT22;6196;48.398;11.736;2023-04-03T07:50:51;5.70;99.90
12268;DHT22;6196;48.398;11.736;2023-04-03T07:53:18;5.90;99.90
12268;DHT22;6196;48.398;11.736;2023-04-03T07:55:48;6.00;99.90
12268;DHT22;6196;48.398;11.736;2023-04-03T07:58:17;6.20;99.90
12268;DHT22;6196;48.398;11.736;2023-04-03T08:00:45;6.30;99.90
12268;DHT22;6196;48.398;11.736;2023-04-03T08:03:12;6.50;99.90
12268;DHT22;6196;48.398;11.736;2023-04-03T08:05:41;6.60;99.90
12268;DHT22;6196;48.398;11.736;2023-04-03T08:08:10;6.50;99.90
12268;DHT22;6196;48.398;11.736;2023-04-03T08:10:38;6.40;99.90
12268;DHT22;6196;48.398;11.736;2023-04-03T08:13:07;6.50;99.90
12268;DHT22;6196;48.398;11.736;2023-04-03T08:15:34;6.70;99.90
12268;DHT22;6196;48.398;11.736;2023-04-03T08:18:03;7.20;99.90
12268;DHT22;6196;48.398;11.736;2023-04-03T08:20:30;7.20;99.90
12268;DHT22;6196;48.398;11.736;2023-04-03T08:22:57;7.40;99.90
12268;DHT22;6196;48.398;11.736;2023-04-03T08:25:24;7.50;99.90
12268;DHT22;6196;48.398;11.736;2023-04-03T08:27:51;7.50;99.90
12268;DHT22;6196;48.398;11.736;2023-04-03T08:30:18;7.80;99.90
12268;DHT22;6196;48.398;11.736;2023-04-03T08:32:45;7.80;99.90
12268;DHT22;6196;48.398;11.736;2023-04-03T08:35:12;7.50;99.90
12268;DHT22;6196;48.398;11.736;2023-04-03T08:37:39;7.50;99.90
12268;DHT22;6196;48.398;11.736;2023-04-03T08:40:10;7.50;99.90
12268;DHT22;6196;48.398;11.736;2023-04-03T08:45:46;7.30;99.90
12268;DHT22;6196;48.398;11.736;2023-04-03T08:48:29;7.40;99.90
12268;DHT22;6196;48.398;11.736;2023-04-03T08:51:00;7.50;99.90
12268;DHT22;6196;48.398;11.736;2023-04-03T08:53:35;7.60;99.90
12268;DHT22;6196;48.398;11.736;2023-04-03T08:56:09;7.60;99.90
12268;DHT22;6196;48.398;11.736;2023-04-03T08:58:54;7.40;99.90
12268;DHT22;6196;48.398;11.736;2023-04-03T09:01:30;7.70;99.90
12268;DHT22;6196;48.398;11.736;2023-04-03T09:04:02;7.80;99.90
12268;DHT22;6196;48.398;11.736;2023-04-03T09:06:36;7.60;99.90
12268;DHT22;6196;48.398;11.736;2023-04-03T09:09:35;7.80;99.90
12268;DHT22;6196;48.398;11.736;2023-04-03T09:12:22;7.90;99.90
12268;DHT22;6196;48.398;11.736;2023-04-03T09:15:09;8.10;99.90
12268;DHT22;6196;48.398;11.736;2023-04-03T09:18:12;8.20;99.90
12268;DHT22;6196;48.398;11.736;2023-04-03T09:21:07;8.20;99.90
12268;DHT22;6196;48.398;11.736;2023-04-03T09:26:24;8.60;99.90
12268;DHT22;6196;48.398;11.736;2023-04-03T09:28:55;8.70;99.90
12268;DHT22;6196;48.398;11.736;2023-04-03T09:31:36;8.70;99.90
12268;DHT22;6196;48.398;11.736;2023-04-03T09:34:23;8.50;99.90
12268;DHT22;6196;48.398;11.736;2023-04-03T09:36:55;8.50;99.90
12268;DHT22;6196;48.398;11.736;2023-04-03T09:39:28;8.30;99.90
12268;DHT22;6196;48.398;11.736;2023-04-03T09:42:02;8.40;99.90
12268;DHT22;6196;48.398;11.736;2023-04-03T09:44:36;8.60;99.90
12268;DHT22;6196;48.398;11.736;2023-04-03T09:47:28;8.80;99.90
12268;DHT22;6196;48.398;11.736;2023-04-03T09:52:41;9.00;99.90
12268;DHT22;6196;48.398;11.736;2023-04-03T09:55:24;9.10;99.90
12268;DHT22;6196;48.398;11.736;2023-04-03T09:58:00;8.70;99.90
12268;DHT22;6196;48.398;11.736;2023-04-03T10:00:35;8.90;99.90
12268;DHT22;6196;48.398;11.736;2023-04-03T10:03:04;8.90;99.90
12268;DHT22;6196;48.398;11.736;2023-04-03T10:05:38;9.30;99.90
12268;DHT22;6196;48.398;11.736;2023-04-03T10:08:30;9.70;99.90
12268;DHT22;6196;48.398;11.736;2023-04-03T10:14:01;9.20;99.90
12268;DHT22;6196;48.398;11.736;2023-04-03T10:22:02;8.70;99.90
12268;DHT22;6196;48.398;11.736;2023-04-03T10:24:54;8.40;99.90
12268;DHT22;6196;48.398;11.736;2023-04-03T10:28:09;8.50;99.90
12268;DHT22;6196;48.398;11.736;2023-04-03T10:33:56;8.60;99.90
12268;DHT22;6196;48.398;11.736;2023-04-03T10:36:47;8.40;99.90
12268;DHT22;6196;48.398;11.736;2023-04-03T10:47:40;8.30;99.90
12268;DHT22;6196;48.398;11.736;2023-04-03T10:50:39;8.30;99.90
12268;DHT22;6196;48.398;11.736;2023-04-03T10:53:22;8.30;99.90
12268;DHT22;6196;48.398;11.736;2023-04-03T10:59:18;7.80;99.90
12268;DHT22;6196;48.398;11.736;2023-04-03T11:02:04;7.80;99.90
12268;DHT22;6196;48.398;11.736;2023-04-03T11:04:36;7.60;99.90
12268;DHT22;6196;48.398;11.736;2023-04-03T11:09:50;7.90;99.90
12268;DHT22;6196;48.398;11.736;2023-04-03T11:12:43;8.80;99.90
12268;DHT22;6196;48.398;11.736;2023-04-03T11:15:16;9.50;99.90
12268;DHT22;6196;48.398;11.736;2023-04-03T11:20:25;10.50;99.90
12268;DHT22;6196;48.398;11.736;2023-04-03T11:25:51;10.80;99.90
12268;DHT22;6196;48.398;11.736;2023-04-03T11:28:20;11.20;99.90
12268;DHT22;6196;48.398;11.736;2023-04-03T11:36:28;11.50;99.90
12268;DHT22;6196;48.398;11.736;2023-04-03T11:39:30;10.80;99.90
12268;DHT22;6196;48.398;11.736;2023-04-03T11:42:17;9.80;99.90
12268;DHT22;6196;48.398;11.736;2023-04-03T11:44:49;9.30;99.90
12268;DHT22;6196;48.398;11.736;2023-04-03T11:47:48;8.70;99.90
12268;DHT22;6196;48.398;11.736;2023-04-03T12:00:47;8.70;99.90
12268;DHT22;6196;48.398;11.736;2023-04-03T12:08:36;10.60;99.90
12268;DHT22;6196;48.398;11.736;2023-04-03T12:16:54;10.80;99.90
12268;DHT22;6196;48.398;11.736;2023-04-03T12:19:38;10.40;99.90
12268;DHT22;6196;48.398;11.736;2023-04-03T12:22:14;9.60;99.90
12268;DHT22;6196;48.398;11.736;2023-04-03T12:24:46;8.70;99.90
12268;DHT22;6196;48.398;11.736;2023-04-03T12:27:34;8.40;99.90
12268;DHT22;6196;48.398;11.736;2023-04-03T12:30:14;8.20;99.90
12268;DHT22;6196;48.398;11.736;2023-04-03T12:32:55;8.40;99.90
12268;DHT22;6196;48.398;11.736;2023-04-03T12:38:45;8.60;99.90
12268;DHT22;6196;48.398;11.736;2023-04-03T12:42:29;8.60;99.90
12268;DHT22;6196;48.398;11.736;2023-04-03T12:44:47;8.70;99.90
12268;DHT22;6196;48.398;11.736;2023-04-03T12:47:31;8.80;99.90
12268;DHT22;6196;48.398;11.736;2023-04-03T12:50:04;9.00;99.90
12268;DHT22;6196;48.398;11.736;2023-04-03T12:52:46;9.30;99.90
12268;DHT22;6196;48.398;11.736;2023-04-03T12:55:19;9.60;99.90
12268;DHT22;6196;48.398;11.736;2023-04-03T12:57:47;9.60;99.90
12268;DHT22;6196;48.398;11.736;2023-04-03T13:03:02;10.00;99.90
12268;DHT22;6196;48.398;11.736;2023-04-03T13:05:31;11.20;99.70
12268;DHT22;6196;48.398;11.736;2023-04-03T13:08:06;11.60;98.50
12268;DHT22;6196;48.398;11.736;2023-04-03T13:10:55;12.30;96.90
12268;DHT22;6196;48.398;11.736;2023-04-03T13:13:26;14.40;96.10
12268;DHT22;6196;48.398;11.736;2023-04-03T13:15:53;17.00;90.90
12268;DHT22;6196;48.398;11.736;2023-04-03T13:18:31;18.70;81.60
12268;DHT22;6196;48.398;11.736;2023-04-03T13:21:15;18.00;74.60
12268;DHT22;6196;48.398;11.736;2023-04-03T13:23:49;18.00;74.70
12268;DHT22;6196;48.398;11.736;2023-04-03T13:26:29;19.20;76.60
12268;DHT22;6196;48.398;11.736;2023-04-03T13:29:06;19.40;72.10
12268;DHT22;6196;48.398;11.736;2023-04-03T13:31:38;18.40;72.10
12268;DHT22;6196;48.398;11.736;2023-04-03T13:34:15;16.70;68.20
12268;DHT22;6196;48.398;11.736;2023-04-03T13:36:57;15.10;71.90
12268;DHT22;6196;48.398;11.736;2023-04-03T13:39:28;13.50;74.00
12268;DHT22;6196;48.398;11.736;2023-04-03T13:41:58;12.30;76.70
12268;DHT22;6196;48.398;11.736;2023-04-03T13:44:34;11.40;78.30
12268;DHT22;6196;48.398;11.736;2023-04-03T13:47:21;11.00;79.60
12268;DHT22;6196;48.398;11.736;2023-04-03T13:53:11;10.40;79.80
12268;DHT22;6196;48.398;11.736;2023-04-03T13:55:54;10.10;78.70
12268;DHT22;6196;48.398;11.736;2023-04-03T13:58:29;9.80;81.90
12268;DHT22;6196;48.398;11.736;2023-04-03T14:01:17;9.40;81.90
12268;DHT22;6196;48.398;11.736;2023-04-03T14:03:58;9.60;81.90
12268;DHT22;6196;48.398;11.736;2023-04-03T14:06:27;11.40;81.60
12268;DHT22;6196;48.398;11.736;2023-04-03T14:08:55;14.10;76.50
12268;DHT22;6196;48.398;11.736;2023-04-03T14:11:26;17.20;74.30
12268;DHT22;6196;48.398;11.736;2023-04-03T14:13:57;20.00;65.70
12268;DHT22;6196;48.398;11.736;2023-04-03T14:16:30;21.80;61.90
12268;DHT22;6196;48.398;11.736;2023-04-03T14:18:58;22.80;57.70
12268;DHT22;6196;48.398;11.736;2023-04-03T14:21:25;23.40;55.40
12268;DHT22;6196;48.398;11.736;2023-04-03T14:23:52;20.90;51.40
12268;DHT22;6196;48.398;11.736;2023-04-03T14:26:24;18.00;54.40
12268;DHT22;6196;48.398;11.736;2023-04-03T14:28:54;18.70;55.30
12268;DHT22;6196;48.398;11.736;2023-04-03T14:31:22;20.50;51.00
12268;DHT22;6196;48.398;11.736;2023-04-03T14:33:49;22.00;54.30
12268;DHT22;6196;48.398;11.736;2023-04-03T14:36:20;23.80;49.70
12268;DHT22;6196;48.398;11.736;2023-04-03T14:38:49;24.60;49.40
12268;DHT22;6196;48.398;11.736;2023-04-03T14:41:20;25.00;48.50
12268;DHT22;6196;48.398;11.736;2023-04-03T14:43:49;23.50;47.20
12268;DHT22;6196;48.398;11.736;2023-04-03T14:46:21;22.00;48.40
12268;DHT22;6196;48.398;11.736;2023-04-03T14:48:53;21.80;49.70
12268;DHT22;6196;48.398;11.736;2023-04-03T14:51:20;22.90;48.40
12268;DHT22;6196;48.398;11.736;2023-04-03T14:53:47;23.10;48.40
12268;DHT22;6196;48.398;11.736;2023-04-03T14:56:23;23.20;46.70
12268;DHT22;6196;48.398;11.736;2023-04-03T14:58:56;22.40;46.60
12268;DHT22;6196;48.398;11.736;2023-04-03T15:01:27;21.50;45.60
12268;DHT22;6196;48.398;11.736;2023-04-03T15:03:54;21.80;49.00
12268;DHT22;6196;48.398;11.736;2023-04-03T15:06:21;22.00;47.00
12268;DHT22;6196;48.398;11.736;2023-04-03T15:08:48;21.30;47.20
12268;DHT22;6196;48.398;11.736;2023-04-03T15:11:15;20.20;47.50
12268;DHT22;6196;48.398;11.736;2023-04-03T15:13:42;19.00;50.60
12268;DHT22;6196;48.398;11.736;2023-04-03T15:16:18;19.90;49.90
12268;DHT22;6196;48.398;11.736;2023-04-03T15:18:46;20.60;49.00
12268;DHT22;6196;48.398;11.736;2023-04-03T15:21:13;21.70;48.60
12268;DHT22;6196;48.398;11.736;2023-04-03T15:23:40;21.80;48.50
12268;DHT22;6196;48.398;11.736;2023-04-03T15:26:08;22.80;44.90
12268;DHT22;6196;48.398;11.736;2023-04-03T15:28:45;22.80;44.10
12268;DHT22;6196;48.398;11.736;2023-04-03T15:31:12;22.00;43.90
12268;DHT22;6196;48.398;11.736;2023-04-03T15:33:38;20.70;47.30
12268;DHT22;6196;48.398;11.736;2023-04-03T15:36:06;20.50;48.10
12268;DHT22;6196;48.398;11.736;2023-04-03T15:38:53;18.50;47.30
12268;DHT22;6196;48.398;11.736;2023-04-03T15:41:19;17.10;49.80
12268;DHT22;6196;48.398;11.736;2023-04-03T15:43:47;16.10;50.90
12268;DHT22;6196;48.398;11.736;2023-04-03T15:46:14;14.80;52.40
12268;DHT22;6196;48.398;11.736;2023-04-03T15:48:42;14.10;55.60
12268;DHT22;6196;48.398;11.736;2023-04-03T15:51:09;13.00;55.90
12268;DHT22;6196;48.398;11.736;2023-04-03T15:53:36;12.30;56.80
12268;DHT22;6196;48.398;11.736;2023-04-03T15:56:03;11.70;56.60
12268;DHT22;6196;48.398;11.736;2023-04-03T15:58:31;10.90;59.10
12268;DHT22;6196;48.398;11.736;2023-04-03T16:00:58;10.60;60.00
12268;DHT22;6196;48.398;11.736;2023-04-03T16:03:25;10.00;59.70
12268;DHT22;6196;48.398;11.736;2023-04-03T16:05:52;10.10;60.60
12268;DHT22;6196;48.398;11.736;2023-04-03T16:08:19;10.30;59.90
12268;DHT22;6196;48.398;11.736;2023-04-03T16:10:46;10.10;60.30
12268;DHT22;6196;48.398;11.736;2023-04-03T16:13:13;10.20;61.70
12268;DHT22;6196;48.398;11.736;2023-04-03T16:15:41;10.40;61.60
12268;DHT22;6196;48.398;11.736;2023-04-03T16:18:08;10.20;62.10
12268;DHT22;6196;48.398;11.736;2023-04-03T16:20:36;9.70;64.20
12268;DHT22;6196;48.398;11.736;2023-04-03T16:23:04;8.90;66.40
12268;DHT22;6196;48.398;11.736;2023-04-03T16:25:31;8.50;68.70
12268;DHT22;6196;48.398;11.736;2023-04-03T16:27:58;8.00;69.80
12268;DHT22;6196;48.398;11.736;2023-04-03T16:30:25;7.80;71.20
12268;DHT22;6196;48.398;11.736;2023-04-03T16:32:52;7.70;71.20
12268;DHT22;6196;48.398;11.736;2023-04-03T16:35:20;7.80;70.80
12268;DHT22;6196;48.398;11.736;2023-04-03T16:37:47;7.90;70.00
12268;DHT22;6196;48.398;11.736;2023-04-03T16:40:14;8.20;71.60
12268;DHT22;6196;48.398;11.736;2023-04-03T16:42:41;8.40;70.50
12268;DHT22;6196;48.398;11.736;2023-04-03T16:45:09;8.40;70.70
12268;DHT22;6196;48.398;11.736;2023-04-03T16:47:36;8.50;70.20
12268;DHT22;6196;48.398;11.736;2023-04-03T16:50:04;8.20;70.80
12268;DHT22;6196;48.398;11.736;2023-04-03T16:52:31;7.70;72.50
12268;DHT22;6196;48.398;11.736;2023-04-03T16:54:58;7.60;73.30
12268;DHT22;6196;48.398;11.736;2023-04-03T16:57:25;7.60;74.50
12268;DHT22;6196;48.398;11.736;2023-04-03T16:59:53;7.40;73.70
12268;DHT22;6196;48.398;11.736;2023-04-03T17:02:21;7.30;72.90
12268;DHT22;6196;48.398;11.736;2023-04-03T17:04:53;7.10;73.40
12268;DHT22;6196;48.398;11.736;2023-04-03T17:07:22;7.00;72.20
12268;DHT22;6196;48.398;11.736;2023-04-03T17:09:50;6.70;73.00
12268;DHT22;6196;48.398;11.736;2023-04-03T17:12:20;6.60;73.80
12268;DHT22;6196;48.398;11.736;2023-04-03T17:14:48;6.50;74.90
12268;DHT22;6196;48.398;11.736;2023-04-03T17:17:17;6.40;75.80
12268;DHT22;6196;48.398;11.736;2023-04-03T17:19:47;6.30;75.80
12268;DHT22;6196;48.398;11.736;2023-04-03T17:22:14;6.20;76.80
12268;DHT22;6196;48.398;11.736;2023-04-03T17:24:43;6.20;77.00
12268;DHT22;6196;48.398;11.736;2023-04-03T17:27:11;6.10;76.90
12268;DHT22;6196;48.398;11.736;2023-04-03T17:29:38;6.00;77.40
12268;DHT22;6196;48.398;11.736;2023-04-03T17:32:05;5.90;77.60
12268;DHT22;6196;48.398;11.736;2023-04-03T17:34:32;5.90;78.10